Aviation Digital Data Service (ADDS)

Output produced by METARs form (0037 UTC 19 October 2019)
found at http://www.aviationweather.gov/metar/data/
 
METAR text: ZHCC 190000Z VRB01MPS 2500 BR NSC 13/11 Q1022 BECMG TL0140 3000
Conditions at: ZHCC (ZHENGZHOU , CN) observed 0000 UTC 19 October 2019
Temperature: 13.0°C (55°F)
Dewpoint: 11.0°C (52°F) [RH = 88%]
Pressure (altimeter): 30.18 inches Hg (1022.0 mb)
Winds: variable direction winds at 2 MPH (2 knots; 1.0 m/s)
Visibility: 1.55 miles (2.49 km)
Ceiling: at least 12,000 feet AGL
Clouds: sky clear below 12,000 feet AGL
Weather: BR  (mist)

METAR text: ZHCC 182300Z 13001MPS 2500 BR NSC 10/10 Q1022 NOSIG
Conditions at: ZHCC (ZHENGZHOU , CN) observed 2300 UTC 18 October 2019
Temperature: 10.0°C (50°F)
Dewpoint: 10.0°C (50°F) [RH = 100%]
Pressure (altimeter): 30.18 inches Hg (1022.0 mb)
Winds: from the SE (130 degrees) at 2 MPH (2 knots; 1.0 m/s)
Visibility: 1.55 miles (2.49 km)
Ceiling: at least 12,000 feet AGL
Clouds: sky clear below 12,000 feet AGL
Weather: BR  (mist)

METAR text: ZHCC 182200Z VRB01MPS 4000 BR NSC 10/10 Q1022 NOSIG
Conditions at: ZHCC (ZHENGZHOU , CN) observed 2200 UTC 18 October 2019
Temperature: 10.0°C (50°F)
Dewpoint: 10.0°C (50°F) [RH = 100%]
Pressure (altimeter): 30.18 inches Hg (1022.0 mb)
Winds: variable direction winds at 2 MPH (2 knots; 1.0 m/s)
Visibility: 2.49 miles (4.01 km)
Ceiling: at least 12,000 feet AGL
Clouds: sky clear below 12,000 feet AGL
Weather: BR  (mist)

METAR text: ZHCC 182100Z 15001MPS 4000 BR NSC 11/11 Q1021 NOSIG
Conditions at: ZHCC (ZHENGZHOU , CN) observed 2100 UTC 18 October 2019
Temperature: 11.0°C (52°F)
Dewpoint: 11.0°C (52°F) [RH = 100%]
Pressure (altimeter): 30.15 inches Hg (1021.0 mb)
Winds: from the SSE (150 degrees) at 2 MPH (2 knots; 1.0 m/s)
Visibility: 2.49 miles (4.01 km)
Ceiling: at least 12,000 feet AGL
Clouds: sky clear below 12,000 feet AGL
Weather: BR  (mist)

METAR text: ZHCC 182000Z VRB01MPS 4000 BR NSC 10/10 Q1021 NOSIG
Conditions at: ZHCC (ZHENGZHOU , CN) observed 2000 UTC 18 October 2019
Temperature: 10.0°C (50°F)
Dewpoint: 10.0°C (50°F) [RH = 100%]
Pressure (altimeter): 30.15 inches Hg (1021.0 mb)
Winds: variable direction winds at 2 MPH (2 knots; 1.0 m/s)
Visibility: 2.49 miles (4.01 km)
Ceiling: at least 12,000 feet AGL
Clouds: sky clear below 12,000 feet AGL
Weather: BR  (mist)

METAR text: ZHCC 181900Z 00000MPS 6000 NSC 11/11 Q1022 NOSIG
Conditions at: ZHCC (ZHENGZHOU , CN) observed 1900 UTC 18 October 2019
Temperature: 11.0°C (52°F)
Dewpoint: 11.0°C (52°F) [RH = 100%]
Pressure (altimeter): 30.18 inches Hg (1022.0 mb)
Winds: calm
Visibility: 4 miles ( 6 km)
Ceiling: at least 12,000 feet AGL
Clouds: sky clear below 12,000 feet AGL
Weather: no significant weather observed at this time

METAR text: ZHCC 181800Z 00000MPS 6000 NSC 11/10 Q1022 NOSIG
Conditions at: ZHCC (ZHENGZHOU , CN) observed 1800 UTC 18 October 2019
Temperature: 11.0°C (52°F)
Dewpoint: 10.0°C (50°F) [RH = 94%]
Pressure (altimeter): 30.18 inches Hg (1022.0 mb)
Winds: calm
Visibility: 4 miles ( 6 km)
Ceiling: at least 12,000 feet AGL
Clouds: sky clear below 12,000 feet AGL
Weather: no significant weather observed at this time

METAR text: ZHCC 181700Z 16001MPS 6000 NSC 12/09 Q1022 NOSIG
Conditions at: ZHCC (ZHENGZHOU , CN) observed 1700 UTC 18 October 2019
Temperature: 12.0°C (54°F)
Dewpoint: 9.0°C (48°F) [RH = 82%]
Pressure (altimeter): 30.18 inches Hg (1022.0 mb)
Winds: from the SSE (160 degrees) at 2 MPH (2 knots; 1.0 m/s)
Visibility: 4 miles ( 6 km)
Ceiling: at least 12,000 feet AGL
Clouds: sky clear below 12,000 feet AGL
Weather: no significant weather observed at this time

METAR text: ZHCC 181600Z VRB01MPS 6000 NSC 14/09 Q1022 NOSIG
Conditions at: ZHCC (ZHENGZHOU , CN) observed 1600 UTC 18 October 2019
Temperature: 14.0°C (57°F)
Dewpoint: 9.0°C (48°F) [RH = 72%]
Pressure (altimeter): 30.18 inches Hg (1022.0 mb)
Winds: variable direction winds at 2 MPH (2 knots; 1.0 m/s)
Visibility: 4 miles ( 6 km)
Ceiling: at least 12,000 feet AGL
Clouds: sky clear below 12,000 feet AGL
Weather: no significant weather observed at this time

METAR text: ZHCC 181500Z VRB01MPS 7000 NSC 13/09 Q1022 NOSIG
Conditions at: ZHCC (ZHENGZHOU , CN) observed 1500 UTC 18 October 2019
Temperature: 13.0°C (55°F)
Dewpoint: 9.0°C (48°F) [RH = 77%]
Pressure (altimeter): 30.18 inches Hg (1022.0 mb)
Winds: variable direction winds at 2 MPH (2 knots; 1.0 m/s)
Visibility: 4 miles ( 7 km)
Ceiling: at least 12,000 feet AGL
Clouds: sky clear below 12,000 feet AGL
Weather: no significant weather observed at this time

METAR text: ZHCC 181400Z VRB01MPS 7000 NSC 15/09 Q1022 NOSIG
Conditions at: ZHCC (ZHENGZHOU , CN) observed 1400 UTC 18 October 2019
Temperature: 15.0°C (59°F)
Dewpoint: 9.0°C (48°F) [RH = 67%]
Pressure (altimeter): 30.18 inches Hg (1022.0 mb)
Winds: variable direction winds at 2 MPH (2 knots; 1.0 m/s)
Visibility: 4 miles ( 7 km)
Ceiling: at least 12,000 feet AGL
Clouds: sky clear below 12,000 feet AGL
Weather: no significant weather observed at this time

METAR text: ZHCC 181300Z VRB01MPS CAVOK 15/09 Q1022 NOSIG
Conditions at: ZHCC (ZHENGZHOU , CN) observed 1300 UTC 18 October 2019
Temperature: 15.0°C (59°F)
Dewpoint: 9.0°C (48°F) [RH = 67%]
Pressure (altimeter): 30.18 inches Hg (1022.0 mb)
Winds: variable direction winds at 2 MPH (2 knots; 1.0 m/s)
Visibility: 6 or more miles (10+ km)
Ceiling: ceiling and visibility are OK
Clouds: unknown
Weather: no significant weather observed at this time

METAR text: ZHCC 181200Z VRB01MPS CAVOK 14/10 Q1022 NOSIG
Conditions at: ZHCC (ZHENGZHOU , CN) observed 1200 UTC 18 October 2019
Temperature: 14.0°C (57°F)
Dewpoint: 10.0°C (50°F) [RH = 77%]
Pressure (altimeter): 30.18 inches Hg (1022.0 mb)
Winds: variable direction winds at 2 MPH (2 knots; 1.0 m/s)
Visibility: 6 or more miles (10+ km)
Ceiling: ceiling and visibility are OK
Clouds: unknown
Weather: no significant weather observed at this time

METAR text: ZHCC 181100Z VRB01MPS CAVOK 16/09 Q1021 NOSIG
Conditions at: ZHCC (ZHENGZHOU , CN) observed 1100 UTC 18 October 2019
Temperature: 16.0°C (61°F)
Dewpoint: 9.0°C (48°F) [RH = 63%]
Pressure (altimeter): 30.15 inches Hg (1021.0 mb)
Winds: variable direction winds at 2 MPH (2 knots; 1.0 m/s)
Visibility: 6 or more miles (10+ km)
Ceiling: ceiling and visibility are OK
Clouds: unknown
Weather: no significant weather observed at this time

METAR text: ZHCC 181000Z VRB01MPS CAVOK 17/10 Q1021 NOSIG
Conditions at: ZHCC (ZHENGZHOU , CN) observed 1000 UTC 18 October 2019
Temperature: 17.0°C (63°F)
Dewpoint: 10.0°C (50°F) [RH = 63%]
Pressure (altimeter): 30.15 inches Hg (1021.0 mb)
Winds: variable direction winds at 2 MPH (2 knots; 1.0 m/s)
Visibility: 6 or more miles (10+ km)
Ceiling: ceiling and visibility are OK
Clouds: unknown
Weather: no significant weather observed at this time

METAR text: ZHCC 180900Z 14002MPS 100V180 CAVOK 20/08 Q1021 NOSIG
Conditions at: ZHCC (ZHENGZHOU , CN) observed 0900 UTC 18 October 2019
Temperature: 20.0°C (68°F)
Dewpoint: 8.0°C (46°F) [RH = 46%]
Pressure (altimeter): 30.15 inches Hg (1021.0 mb)
Winds: from the SE (140 degrees) at 5 MPH (4 knots; 2.1 m/s)
Visibility: 6 or more miles (10+ km)
Ceiling: ceiling and visibility are OK
Clouds: unknown
Weather: no significant weather observed at this time

METAR text: ZHCC 180800Z 17003MPS 110V240 CAVOK 21/08 Q1021 NOSIG
Conditions at: ZHCC (ZHENGZHOU , CN) observed 0800 UTC 18 October 2019
Temperature: 21.0°C (70°F)
Dewpoint: 8.0°C (46°F) [RH = 43%]
Pressure (altimeter): 30.15 inches Hg (1021.0 mb)
Winds: from the S (170 degrees) at 7 MPH (6 knots; 3.1 m/s)
Visibility: 6 or more miles (10+ km)
Ceiling: ceiling and visibility are OK
Clouds: unknown
Weather: no significant weather observed at this time

METAR text: ZHCC 180700Z 17002MPS 100V220 CAVOK 22/08 Q1022 NOSIG
Conditions at: ZHCC (ZHENGZHOU , CN) observed 0700 UTC 18 October 2019
Temperature: 22.0°C (72°F)
Dewpoint: 8.0°C (46°F) [RH = 41%]
Pressure (altimeter): 30.18 inches Hg (1022.0 mb)
Winds: from the S (170 degrees) at 5 MPH (4 knots; 2.1 m/s)
Visibility: 6 or more miles (10+ km)
Ceiling: ceiling and visibility are OK
Clouds: unknown
Weather: no significant weather observed at this time

METAR text: ZHCC 180600Z 16003MPS 100V200 7000 FEW040 21/09 Q1022 NOSIG
Conditions at: ZHCC (ZHENGZHOU , CN) observed 0600 UTC 18 October 2019
Temperature: 21.0°C (70°F)
Dewpoint: 9.0°C (48°F) [RH = 46%]
Pressure (altimeter): 30.18 inches Hg (1022.0 mb)
Winds: from the SSE (160 degrees) at 7 MPH (6 knots; 3.1 m/s)
Visibility: 4 miles ( 7 km)
Ceiling: at least 12,000 feet AGL
Clouds: few clouds at 4000 feet AGL
Weather: no significant weather observed at this time

METAR text: ZHCC 180500Z 20002MPS 130V280 6000 NSC 21/09 Q1023 NOSIG
Conditions at: ZHCC (ZHENGZHOU , CN) observed 0500 UTC 18 October 2019
Temperature: 21.0°C (70°F)
Dewpoint: 9.0°C (48°F) [RH = 46%]
Pressure (altimeter): 30.21 inches Hg (1023.0 mb)
Winds: from the SSW (200 degrees) at 5 MPH (4 knots; 2.1 m/s)
Visibility: 4 miles ( 6 km)
Ceiling: at least 12,000 feet AGL
Clouds: sky clear below 12,000 feet AGL
Weather: no significant weather observed at this time

METAR text: ZHCC 180400Z 18002MPS 110V230 6000 NSC 20/10 Q1024 NOSIG
Conditions at: ZHCC (ZHENGZHOU , CN) observed 0400 UTC 18 October 2019
Temperature: 20.0°C (68°F)
Dewpoint: 10.0°C (50°F) [RH = 53%]
Pressure (altimeter): 30.24 inches Hg (1024.0 mb)
Winds: from the S (180 degrees) at 5 MPH (4 knots; 2.1 m/s)
Visibility: 4 miles ( 6 km)
Ceiling: at least 12,000 feet AGL
Clouds: sky clear below 12,000 feet AGL
Weather: no significant weather observed at this time

METAR text: ZHCC 180300Z 21002MPS 140V250 6000 NSC 19/10 Q1025 NOSIG
Conditions at: ZHCC (ZHENGZHOU , CN) observed 0300 UTC 18 October 2019
Temperature: 19.0°C (66°F)
Dewpoint: 10.0°C (50°F) [RH = 56%]
Pressure (altimeter): 30.27 inches Hg (1025.0 mb)
Winds: from the SSW (210 degrees) at 5 MPH (4 knots; 2.1 m/s)
Visibility: 4 miles ( 6 km)
Ceiling: at least 12,000 feet AGL
Clouds: sky clear below 12,000 feet AGL
Weather: no significant weather observed at this time

METAR text: ZHCC 180200Z 19002MPS 160V240 3000 HZ NSC 17/11 Q1025 NOSIG
Conditions at: ZHCC (ZHENGZHOU , CN) observed 0200 UTC 18 October 2019
Temperature: 17.0°C (63°F)
Dewpoint: 11.0°C (52°F) [RH = 68%]
Pressure (altimeter): 30.27 inches Hg (1025.0 mb)
Winds: from the S (190 degrees) at 5 MPH (4 knots; 2.1 m/s)
Visibility: 1.86 miles (2.99 km)
Ceiling: at least 12,000 feet AGL
Clouds: sky clear below 12,000 feet AGL
Weather: HZ  (haze)

METAR text: ZHCC 180100Z 21002MPS 160V240 2500 BR NSC 15/12 Q1025 BECMG TL0140 3000
Conditions at: ZHCC (ZHENGZHOU , CN) observed 0100 UTC 18 October 2019
Temperature: 15.0°C (59°F)
Dewpoint: 12.0°C (54°F) [RH = 82%]
Pressure (altimeter): 30.27 inches Hg (1025.0 mb)
Winds: from the SSW (210 degrees) at 5 MPH (4 knots; 2.1 m/s)
Visibility: 1.55 miles (2.49 km)
Ceiling: at least 12,000 feet AGL
Clouds: sky clear below 12,000 feet AGL
Weather: BR  (mist)

METAR text: ZHCC 180000Z VRB01MPS 1400 R30L/1400D R30R/1600N BR NSC 12/12 Q1024 BECMG TL0140 3000
Conditions at: ZHCC (ZHENGZHOU , CN) observed 0000 UTC 18 October 2019
Temperature: 12.0°C (54°F)
Dewpoint: 12.0°C (54°F) [RH = 100%]
Pressure (altimeter): 30.24 inches Hg (1024.0 mb)
Winds: variable direction winds at 2 MPH (2 knots; 1.0 m/s)
Visibility: 0.87 miles (1.40 km)
Ceiling: at least 12,000 feet AGL
Clouds: sky clear below 12,000 feet AGL
Weather: BR  (mist)

METAR text: ZHCC 172300Z VRB01MPS 1400 R30L/1200V1400D R30R/1900D BR NSC 08/08 Q1024 NOSIG
Conditions at: ZHCC (ZHENGZHOU , CN) observed 2300 UTC 17 October 2019
Temperature: 8.0°C (46°F)
Dewpoint: 8.0°C (46°F) [RH = 100%]
Pressure (altimeter): 30.24 inches Hg (1024.0 mb)
Winds: variable direction winds at 2 MPH (2 knots; 1.0 m/s)
Visibility: 0.87 miles (1.40 km)
Ceiling: at least 12,000 feet AGL
Clouds: sky clear below 12,000 feet AGL
Weather: BR  (mist)

METAR text: ZHCC 172200Z 00000MPS 2500 BR NSC 08/08 Q1024 NOSIG
Conditions at: ZHCC (ZHENGZHOU , CN) observed 2200 UTC 17 October 2019
Temperature: 8.0°C (46°F)
Dewpoint: 8.0°C (46°F) [RH = 100%]
Pressure (altimeter): 30.24 inches Hg (1024.0 mb)
Winds: calm
Visibility: 1.55 miles (2.49 km)
Ceiling: at least 12,000 feet AGL
Clouds: sky clear below 12,000 feet AGL
Weather: BR  (mist)

METAR text: ZHCC 172100Z 00000MPS 2500 BR NSC 07/07 Q1023 NOSIG
Conditions at: ZHCC (ZHENGZHOU , CN) observed 2100 UTC 17 October 2019
Temperature: 7.0°C (45°F)
Dewpoint: 7.0°C (45°F) [RH = 100%]
Pressure (altimeter): 30.21 inches Hg (1023.0 mb)
Winds: calm
Visibility: 1.55 miles (2.49 km)
Ceiling: at least 12,000 feet AGL
Clouds: sky clear below 12,000 feet AGL
Weather: BR  (mist)

METAR text: ZHCC 172000Z 00000MPS 2500 BR NSC 09/09 Q1023 NOSIG
Conditions at: ZHCC (ZHENGZHOU , CN) observed 2000 UTC 17 October 2019
Temperature: 9.0°C (48°F)
Dewpoint: 9.0°C (48°F) [RH = 100%]
Pressure (altimeter): 30.21 inches Hg (1023.0 mb)
Winds: calm
Visibility: 1.55 miles (2.49 km)
Ceiling: at least 12,000 feet AGL
Clouds: sky clear below 12,000 feet AGL
Weather: BR  (mist)

METAR text: ZHCC 171900Z 00000MPS 3000 BR NSC 09/09 Q1023 NOSIG
Conditions at: ZHCC (ZHENGZHOU , CN) observed 1900 UTC 17 October 2019
Temperature: 9.0°C (48°F)
Dewpoint: 9.0°C (48°F) [RH = 100%]
Pressure (altimeter): 30.21 inches Hg (1023.0 mb)
Winds: calm
Visibility: 1.86 miles (2.99 km)
Ceiling: at least 12,000 feet AGL
Clouds: sky clear below 12,000 feet AGL
Weather: BR  (mist)

METAR text: ZHCC 171800Z 13001MPS 3500 BR NSC 09/09 Q1024 NOSIG
Conditions at: ZHCC (ZHENGZHOU , CN) observed 1800 UTC 17 October 2019
Temperature: 9.0°C (48°F)
Dewpoint: 9.0°C (48°F) [RH = 100%]
Pressure (altimeter): 30.24 inches Hg (1024.0 mb)
Winds: from the SE (130 degrees) at 2 MPH (2 knots; 1.0 m/s)
Visibility: 2.17 miles (3.49 km)
Ceiling: at least 12,000 feet AGL
Clouds: sky clear below 12,000 feet AGL
Weather: BR  (mist)

METAR text: ZHCC 171700Z VRB01MPS 3500 BR NSC 09/09 Q1024 NOSIG
Conditions at: ZHCC (ZHENGZHOU , CN) observed 1700 UTC 17 October 2019
Temperature: 9.0°C (48°F)
Dewpoint: 9.0°C (48°F) [RH = 100%]
Pressure (altimeter): 30.24 inches Hg (1024.0 mb)
Winds: variable direction winds at 2 MPH (2 knots; 1.0 m/s)
Visibility: 2.17 miles (3.49 km)
Ceiling: at least 12,000 feet AGL
Clouds: sky clear below 12,000 feet AGL
Weather: BR  (mist)

METAR text: ZHCC 171600Z VRB01MPS 4000 BR NSC 10/10 Q1024 NOSIG
Conditions at: ZHCC (ZHENGZHOU , CN) observed 1600 UTC 17 October 2019
Temperature: 10.0°C (50°F)
Dewpoint: 10.0°C (50°F) [RH = 100%]
Pressure (altimeter): 30.24 inches Hg (1024.0 mb)
Winds: variable direction winds at 2 MPH (2 knots; 1.0 m/s)
Visibility: 2.49 miles (4.01 km)
Ceiling: at least 12,000 feet AGL
Clouds: sky clear below 12,000 feet AGL
Weather: BR  (mist)

METAR text: ZHCC 171500Z 00000MPS 5000 BR NSC 11/11 Q1024 NOSIG
Conditions at: ZHCC (ZHENGZHOU , CN) observed 1500 UTC 17 October 2019
Temperature: 11.0°C (52°F)
Dewpoint: 11.0°C (52°F) [RH = 100%]
Pressure (altimeter): 30.24 inches Hg (1024.0 mb)
Winds: calm
Visibility: 3 miles ( 5 km)
Ceiling: at least 12,000 feet AGL
Clouds: sky clear below 12,000 feet AGL
Weather: BR  (mist)

METAR text: ZHCC 171400Z VRB01MPS 5000 BR NSC 12/11 Q1025 NOSIG
Conditions at: ZHCC (ZHENGZHOU , CN) observed 1400 UTC 17 October 2019
Temperature: 12.0°C (54°F)
Dewpoint: 11.0°C (52°F) [RH = 94%]
Pressure (altimeter): 30.27 inches Hg (1025.0 mb)
Winds: variable direction winds at 2 MPH (2 knots; 1.0 m/s)
Visibility: 3 miles ( 5 km)
Ceiling: at least 12,000 feet AGL
Clouds: sky clear below 12,000 feet AGL
Weather: BR  (mist)

METAR text: ZHCC 171300Z VRB01MPS 5000 BR NSC 12/11 Q1024 NOSIG
Conditions at: ZHCC (ZHENGZHOU , CN) observed 1300 UTC 17 October 2019
Temperature: 12.0°C (54°F)
Dewpoint: 11.0°C (52°F) [RH = 94%]
Pressure (altimeter): 30.24 inches Hg (1024.0 mb)
Winds: variable direction winds at 2 MPH (2 knots; 1.0 m/s)
Visibility: 3 miles ( 5 km)
Ceiling: at least 12,000 feet AGL
Clouds: sky clear below 12,000 feet AGL
Weather: BR  (mist)

Forecast for: ZHCC (ZHENGZHOU , CN)
Text: TAF ZHCC 181914Z 1900/1924 18003MPS 3000 BR NSC TX20/1907Z TN10/1922Z
Forecast period: 0000 UTC 19 October 2019 to 0000 UTC 20 October 2019
Forecast type: FROM: standard forecast or significant change
Winds: from the S (180 degrees) at 7 MPH (6 knots; 3.1 m/s)
Visibility: 1.86 miles (2.99 km)
Ceiling: unknown
Clouds: missing
Weather: BR  (mist)